Terminal Aerodrome Forecast
Issued by NWS Wilmington, OH

Current Version | Previous Version | Text Only | Print | Product List | Glossary Off
Versions: 1 2 3 4 5 6 7 8 9 10 11 12 13 14 15 16 17 18 19 20 21 22 23 24

000
FTUS41 KILN 160500
TAFILN
TAF
KILN 160534Z 1606/1706 36008KT 3SM -RA BR OVC005
      TEMPO 1606/1608 OVC012
     FM160900 36005KT 1SM BR OVC004
     FM161300 36004KT 3SM BR OVC005
     FM161500 01005KT P6SM OVC010
     FM161900 02005KT P6SM BKN022
     FM162100 VRB03KT P6SM SCT035
     FM170000 VRB02KT P6SM SKC=

USA.gov is the U.S. government's official web portal to all federal, state and local government web resources and services.